createdAt,value
2019-04-06T00:02:26.525Z,61.00
2019-04-06T00:07:32.359Z,59.83
2019-04-06T00:12:37.691Z,59.80
2019-04-06T00:17:43.409Z,61.13
2019-04-06T00:22:48.954Z,61.10
2019-04-06T00:27:54.308Z,57.10
2019-04-06T00:33:11.135Z,62.45
2019-04-06T00:38:16.940Z,65.92
2019-04-06T00:43:22.461Z,60.03
2019-04-06T00:48:28.158Z,60.52
2019-04-06T00:53:33.546Z,58.95
2019-04-06T00:58:38.854Z,62.00
2019-04-06T01:03:44.067Z,64.10
2019-04-06T01:08:49.452Z,60.13
2019-04-06T01:13:55.169Z,64.30
2019-04-06T01:19:00.794Z,68.02
2019-04-06T01:24:06.244Z,68.57
2019-04-06T01:29:11.606Z,69.30
2019-04-06T01:34:16.884Z,63.87
2019-04-06T01:39:22.258Z,66.30
2019-04-06T01:44:27.869Z,68.83
2019-04-06T01:49:33.282Z,68.40
2019-04-06T01:54:39.082Z,64.92
2019-04-06T01:59:44.503Z,62.70
2019-04-06T02:04:49.846Z,66.70
2019-04-06T02:09:55.092Z,65.17
2019-04-06T02:15:00.451Z,65.43
2019-04-06T02:20:06.509Z,63.08
2019-04-06T02:25:12.157Z,67.10
2019-04-06T02:30:33.148Z,65.22
2019-04-06T02:35:57.636Z,72.97
2019-04-06T02:41:08.946Z,73.00
2019-04-06T02:46:14.887Z,71.22
2019-04-06T02:51:20.482Z,68.35
2019-04-06T02:56:26.142Z,64.60
2019-04-06T03:01:31.798Z,67.23
2019-04-06T03:06:38.036Z,68.78
2019-04-06T03:11:43.302Z,66.30
2019-04-06T03:16:48.676Z,68.37
2019-04-06T03:21:53.948Z,74.83
2019-04-06T03:27:02.446Z,73.15
2019-04-06T03:32:06.374Z,72.03
2019-04-06T03:37:12.083Z,72.75
2019-04-06T03:42:17.498Z,72.30
2019-04-06T03:47:22.780Z,70.42
2019-04-06T03:52:28.390Z,66.77
2019-04-06T03:57:33.871Z,69.73
2019-04-06T04:02:39.181Z,71.60
2019-04-06T04:07:45.769Z,70.67
2019-04-06T04:12:51.468Z,70.90
2019-04-06T04:17:57.166Z,70.00
2019-04-06T04:23:02.618Z,66.87
2019-04-06T04:28:07.987Z,66.93
2019-04-06T04:33:13.450Z,62.27
2019-04-06T04:38:18.771Z,67.50
2019-04-06T04:43:24.071Z,66.47
2019-04-06T04:48:29.508Z,60.13
2019-04-06T04:53:35.043Z,63.65
2019-04-06T04:58:40.350Z,65.08
2019-04-06T05:03:45.791Z,68.57
2019-04-06T05:08:50.997Z,67.80
2019-04-06T05:14:32.583Z,65.70
2019-04-06T05:19:38.016Z,67.15
2019-04-06T05:24:43.332Z,69.23
2019-04-06T05:29:48.864Z,67.67
2019-04-06T05:34:54.176Z,60.98
2019-04-06T05:39:59.390Z,63.40
2019-04-06T05:45:04.949Z,62.90
2019-04-06T05:50:10.326Z,62.13
2019-04-06T05:55:15.818Z,64.22
2019-04-06T06:00:21.108Z,65.65
2019-04-06T06:05:26.681Z,66.50
2019-04-06T06:10:32.150Z,66.87
2019-04-06T06:15:38.470Z,62.30
2019-04-06T06:20:44.958Z,67.10
2019-04-06T06:25:50.382Z,63.08
2019-04-06T06:30:56.074Z,64.65
2019-04-06T06:36:01.613Z,63.28
2019-04-06T06:41:07.115Z,60.30
2019-04-06T06:46:12.407Z,51.25
2019-04-06T06:51:17.814Z,52.67
2019-04-06T06:56:23.246Z,49.67
2019-04-06T07:01:28.999Z,48.73
2019-04-06T07:06:34.237Z,50.75
2019-04-06T07:11:39.520Z,52.13
2019-04-06T07:16:45.017Z,48.28
2019-04-06T07:21:50.354Z,54.37
2019-04-06T07:26:56.817Z,51.73
2019-04-06T07:32:02.214Z,51.63
2019-04-06T07:37:07.723Z,46.92
2019-04-06T07:42:13.128Z,42.67
2019-04-06T07:47:18.724Z,43.02
2019-04-06T07:52:24.163Z,42.65
2019-04-06T07:57:29.728Z,39.70
2019-04-06T08:02:35.304Z,40.52
2019-04-06T08:07:40.645Z,39.73
2019-04-06T08:12:46.156Z,43.42
2019-04-06T08:17:52.997Z,43.23
2019-04-06T08:22:59.282Z,48.93
2019-04-06T08:28:05.526Z,42.95
2019-04-06T08:33:11.340Z,41.37
2019-04-06T08:38:17.044Z,41.70
2019-04-06T08:43:24.043Z,43.53
2019-04-06T08:48:29.358Z,42.75
2019-04-06T08:53:34.799Z,41.33
2019-04-06T08:58:40.672Z,41.23
2019-04-06T09:03:46.003Z,39.57
2019-04-06T09:08:51.691Z,40.78
2019-04-06T09:13:58.423Z,38.23
2019-04-06T09:19:04.161Z,39.60
2019-04-06T09:24:09.747Z,38.38
2019-04-06T09:29:23.178Z,35.73
2019-04-06T09:34:22.476Z,38.80
2019-04-06T09:39:27.930Z,35.33
2019-04-06T09:44:52.217Z,34.90
2019-04-06T09:50:15.516Z,33.33
2019-04-06T09:55:46.359Z,33.95
2019-04-06T10:00:58.892Z,33.87
2019-04-06T10:06:32.564Z,32.25
2019-04-06T10:12:15.124Z,33.42
2019-04-06T10:17:50.862Z,33.27
2019-04-06T10:23:17.948Z,34.83
2019-04-06T10:28:41.189Z,32.23
2019-04-06T10:33:57.475Z,32.67
2019-04-06T10:39:35.855Z,32.30
2019-04-06T10:45:00.471Z,32.65
2019-04-06T10:50:27.933Z,32.33
2019-04-06T10:55:53.031Z,31.93
2019-04-06T11:01:16.322Z,32.13
2019-04-06T11:06:47.253Z,32.23
2019-04-06T11:12:10.703Z,32.73
2019-04-06T11:17:38.560Z,32.55
2019-04-06T11:23:02.357Z,31.15
2019-04-06T11:28:21.187Z,31.02
2019-04-06T11:34:00.598Z,32.08
2019-04-06T11:39:37.586Z,33.38
2019-04-06T11:45:06.678Z,30.87
2019-04-06T11:50:38.060Z,31.17
2019-04-06T11:56:18.891Z,31.82
2019-04-06T12:01:36.461Z,31.95
2019-04-06T12:07:05.024Z,31.77
2019-04-06T12:12:20.549Z,32.17
2019-04-06T12:17:48.283Z,31.27
2019-04-06T12:23:00.480Z,31.57
2019-04-06T12:28:16.668Z,31.15
2019-04-06T12:33:39.861Z,31.70
2019-04-06T12:38:55.070Z,31.90
2019-04-06T12:44:18.209Z,30.72
2019-04-06T12:50:01.561Z,31.23
2019-04-06T12:55:29.619Z,33.73
2019-04-06T13:00:54.390Z,32.27
2019-04-06T13:06:11.320Z,31.82
2019-04-06T13:11:32.209Z,31.67
2019-04-06T13:16:43.563Z,32.48
2019-04-06T13:22:13.021Z,33.33
2019-04-06T13:27:25.280Z,29.98
2019-04-06T13:32:40.788Z,29.23
2019-04-06T13:38:05.410Z,28.57
2019-04-06T13:43:17.719Z,26.95
2019-04-06T13:49:01.188Z,26.40
2019-04-06T13:54:18.369Z,27.90
2019-04-06T13:59:33.129Z,26.82
2019-04-06T14:04:48.015Z,27.35
2019-04-06T14:10:09.325Z,26.93
2019-04-06T14:15:32.519Z,25.37
2019-04-06T14:20:55.812Z,23.67
2019-04-06T14:26:18.943Z,24.82
2019-04-06T14:31:52.358Z,23.60
2019-04-06T14:37:20.469Z,22.55
2019-04-06T14:42:37.746Z,23.00
2019-04-06T14:48:02.037Z,21.20
2019-04-06T14:53:14.905Z,20.48
2019-04-06T14:58:58.226Z,22.52
2019-04-06T15:04:23.512Z,21.62
2019-04-06T15:09:46.368Z,21.95
2019-04-06T15:15:11.773Z,22.90
2019-04-06T15:20:39.986Z,24.07
2019-04-06T15:25:54.913Z,23.27
2019-04-06T15:31:06.625Z,21.80
2019-04-06T15:36:20.921Z,23.07
2019-04-06T15:42:03.738Z,23.27
2019-04-06T15:47:22.594Z,22.55
2019-04-06T15:52:55.965Z,21.77
2019-04-06T15:58:07.787Z,22.27
2019-04-06T16:03:26.216Z,22.32
2019-04-06T16:08:41.183Z,21.80
2019-04-06T16:14:04.271Z,22.03
2019-04-06T16:19:20.984Z,21.43
2019-04-06T16:24:38.753Z,21.57
2019-04-06T16:30:12.007Z,21.63
2019-04-06T16:35:43.809Z,22.20
2019-04-06T16:41:23.444Z,23.32
2019-04-06T16:46:53.798Z,22.40
2019-04-06T16:52:20.333Z,21.42
2019-04-06T16:57:45.575Z,22.42
2019-04-06T17:03:18.770Z,21.93
2019-04-06T17:08:46.953Z,22.37
2019-04-06T17:14:13.453Z,23.77
2019-04-06T17:19:37.440Z,23.93
2019-04-06T17:25:02.982Z,23.45
2019-04-06T17:30:15.845Z,23.62
2019-04-06T17:35:45.214Z,22.23
2019-04-06T17:41:00.388Z,21.93
2019-04-06T17:46:23.378Z,23.55
2019-04-06T17:51:37.630Z,23.32
2019-04-06T17:56:54.106Z,24.85
2019-04-06T18:02:30.308Z,24.92
2019-04-06T18:08:03.828Z,23.32
2019-04-06T18:13:34.483Z,23.80
2019-04-06T18:18:40.109Z,25.53
2019-04-06T18:23:46.146Z,22.95
2019-04-06T18:28:51.595Z,23.42
2019-04-06T18:33:56.968Z,23.10
2019-04-06T18:39:07.190Z,22.25
2019-04-06T18:44:12.991Z,23.02
2019-04-06T18:49:18.369Z,22.30
2019-04-06T18:54:24.707Z,22.58
2019-04-06T18:59:29.947Z,24.25
2019-04-06T19:04:35.347Z,23.17
2019-04-06T19:09:41.828Z,25.27
2019-04-06T19:14:47.403Z,27.98
2019-04-06T19:19:52.694Z,25.85
2019-04-06T19:24:58.032Z,24.60
2019-04-06T19:30:04.840Z,26.93
2019-04-06T19:35:10.875Z,29.48
2019-04-06T19:40:16.392Z,28.35
2019-04-06T19:45:23.746Z,28.90
2019-04-06T19:50:29.028Z,26.52
2019-04-06T19:55:35.690Z,25.40
2019-04-06T20:00:41.315Z,26.73
2019-04-06T20:05:47.349Z,24.00
2019-04-06T20:10:53.142Z,20.55
2019-04-06T20:15:58.750Z,23.95
2019-04-06T20:21:04.068Z,23.75
2019-04-06T20:26:09.366Z,21.77
2019-04-06T20:31:14.879Z,22.20
2019-04-06T20:36:20.463Z,22.45
2019-04-06T20:41:26.148Z,24.67
2019-04-06T20:46:32.016Z,24.43
2019-04-06T20:51:39.261Z,24.82
2019-04-06T20:56:53.908Z,26.60
2019-04-06T21:01:52.185Z,27.50
2019-04-06T21:06:57.712Z,27.30
2019-04-06T21:12:03.722Z,27.42
2019-04-06T21:17:09.593Z,26.85
2019-04-06T21:22:15.019Z,32.88
2019-04-06T21:27:20.396Z,35.92
2019-04-06T21:32:26.120Z,34.13
2019-04-06T21:37:31.539Z,38.63
2019-04-06T21:42:37.634Z,33.58
2019-04-06T21:47:43.339Z,30.10
2019-04-06T21:52:49.686Z,28.30
2019-04-06T21:57:55.352Z,28.43
2019-04-06T22:03:01.628Z,28.10
2019-04-06T22:08:07.369Z,26.30
2019-04-06T22:13:13.196Z,26.97
2019-04-06T22:18:19.330Z,27.80
2019-04-06T22:23:25.228Z,25.90
2019-04-06T22:28:31.110Z,25.07
2019-04-06T22:33:36.505Z,27.50
2019-04-06T22:38:42.123Z,25.30
2019-04-06T22:43:47.883Z,25.32
2019-04-06T22:48:53.183Z,24.40
2019-04-06T22:53:58.619Z,26.62
2019-04-06T22:59:03.912Z,30.75
2019-04-06T23:04:45.735Z,31.25
2019-04-06T23:09:41.697Z,30.10
2019-04-06T23:14:47.770Z,30.67
2019-04-06T23:19:53.555Z,26.50
2019-04-06T23:24:59.031Z,27.52
2019-04-06T23:30:05.072Z,28.23
2019-04-06T23:35:10.807Z,28.73
2019-04-06T23:40:16.798Z,27.40
2019-04-06T23:45:23.532Z,24.82
2019-04-06T23:50:29.391Z,26.93
2019-04-06T23:55:35.344Z,27.52
